createdAt,value
2023-01-19T00:02:14.702Z,36
2023-01-19T00:04:45.102Z,32
2023-01-19T00:07:15.199Z,32
2023-01-19T00:09:45.134Z,30
2023-01-19T00:12:15.408Z,34
2023-01-19T00:14:45.837Z,32
2023-01-19T00:17:16.362Z,30
2023-01-19T00:19:46.649Z,36
2023-01-19T00:22:17.068Z,34
2023-01-19T00:24:47.130Z,36
2023-01-19T00:27:17.495Z,36
2023-01-19T00:29:47.789Z,34
2023-01-19T00:32:18.227Z,36
2023-01-19T00:34:48.696Z,28
2023-01-19T00:37:18.970Z,51
2023-01-19T00:39:49.216Z,30
2023-01-19T00:42:19.406Z,27
2023-01-19T00:44:49.875Z,39
2023-01-19T00:47:20.351Z,28
2023-01-19T00:49:50.501Z,24
2023-01-19T00:52:20.746Z,24
2023-01-19T00:54:50.957Z,24
2023-01-19T00:57:21.214Z,18
2023-01-19T00:59:53.209Z,20
2023-01-19T01:02:23.353Z,16
2023-01-19T01:04:53.354Z,20
2023-01-19T01:07:23.684Z,12
2023-01-19T01:09:54.044Z,12
2023-01-19T01:12:24.320Z,12
2023-01-19T01:14:54.668Z,16
2023-01-19T01:17:25.189Z,20
2023-01-19T01:19:55.394Z,14
2023-01-19T01:22:25.827Z,11
2023-01-19T01:24:56.214Z,12
2023-01-19T01:27:26.562Z,16
2023-01-19T01:29:56.802Z,12
2023-01-19T01:32:27.104Z,8
2023-01-19T01:34:57.490Z,4
2023-01-19T01:37:27.990Z,7
2023-01-19T01:39:58.371Z,12
2023-01-19T01:42:29.197Z,10
2023-01-19T01:44:59.717Z,10
2023-01-19T01:47:30.107Z,8
2023-01-19T01:50:00.395Z,10
2023-01-19T01:52:30.943Z,10
2023-01-19T01:55:01.357Z,8
2023-01-19T01:57:31.795Z,7
2023-01-19T02:00:02.069Z,8
2023-01-19T02:02:32.450Z,8
2023-01-19T02:05:03.148Z,8
2023-01-19T02:07:33.320Z,6
2023-01-19T02:10:03.776Z,14
2023-01-19T02:12:34.275Z,8
2023-01-19T02:15:04.522Z,10
2023-01-19T02:17:34.867Z,8
2023-01-19T02:20:05.280Z,6
2023-01-19T02:22:35.823Z,10
2023-01-19T02:25:06.251Z,4
2023-01-19T02:27:36.492Z,8
2023-01-19T02:30:06.845Z,8
2023-01-19T02:32:37.225Z,8
2023-01-19T02:35:07.729Z,6
2023-01-19T02:37:38.099Z,12
2023-01-19T02:40:08.462Z,8
2023-01-19T02:42:38.756Z,4
2023-01-19T02:45:09.072Z,6
2023-01-19T02:47:39.353Z,8
2023-01-19T02:50:09.830Z,4
2023-01-19T02:52:40.191Z,7
2023-01-19T02:55:10.608Z,8
2023-01-19T02:57:41.001Z,8
2023-01-19T03:00:11.231Z,4
2023-01-19T03:02:41.398Z,8
2023-01-19T03:05:11.708Z,7
2023-01-19T03:07:42.208Z,6
2023-01-19T03:10:12.620Z,4
2023-01-19T03:12:42.997Z,4
2023-01-19T03:15:13.614Z,6
2023-01-19T03:17:43.761Z,6
2023-01-19T03:20:14.100Z,8
2023-01-19T03:22:44.444Z,4
2023-01-19T03:25:14.766Z,4
2023-01-19T03:27:45.192Z,4
2023-01-19T03:30:15.603Z,4
2023-01-19T03:32:45.962Z,8
2023-01-19T03:35:16.301Z,4
2023-01-19T03:37:46.668Z,4
2023-01-19T03:40:17.189Z,4
2023-01-19T03:42:48.101Z,4
2023-01-19T03:45:17.861Z,6
2023-01-19T03:47:48.278Z,4
2023-01-19T03:50:18.499Z,4
2023-01-19T03:52:48.933Z,7
2023-01-19T03:55:19.383Z,4
2023-01-19T03:57:49.645Z,4
2023-01-19T04:00:20.107Z,4
2023-01-19T04:02:50.341Z,4
2023-01-19T04:05:20.788Z,4
2023-01-19T04:07:51.085Z,4
2023-01-19T04:10:21.590Z,8
2023-01-19T04:12:51.886Z,4
2023-01-19T04:15:22.287Z,4
2023-01-19T04:17:52.651Z,4
2023-01-19T04:20:22.961Z,2
2023-01-19T04:22:53.079Z,4
2023-01-19T04:25:23.248Z,4
2023-01-19T04:27:53.843Z,2
2023-01-19T04:30:24.212Z,4
2023-01-19T04:32:54.583Z,4
2023-01-19T04:35:24.886Z,4
2023-01-19T04:37:55.341Z,2
2023-01-19T04:40:25.637Z,2
2023-01-19T04:42:56.146Z,4
2023-01-19T04:45:26.455Z,4
2023-01-19T04:47:56.693Z,4
2023-01-19T04:50:26.963Z,6
2023-01-19T04:52:57.237Z,2
2023-01-19T04:55:27.654Z,4
2023-01-19T04:57:58.103Z,4
2023-01-19T05:00:28.353Z,4
2023-01-19T05:02:58.654Z,2
2023-01-19T05:05:29.334Z,4
2023-01-19T05:07:59.580Z,4
2023-01-19T05:10:29.985Z,8
2023-01-19T05:13:00.690Z,6
2023-01-19T05:15:30.648Z,4
2023-01-19T05:18:00.680Z,4
2023-01-19T05:20:30.968Z,6
2023-01-19T05:23:01.822Z,4
2023-01-19T05:25:31.798Z,4
2023-01-19T05:28:02.045Z,8
2023-01-19T05:30:32.363Z,8
2023-01-19T05:33:03.211Z,6
2023-01-19T05:35:36.061Z,6
2023-01-19T05:38:03.317Z,8
2023-01-19T05:40:33.492Z,8
2023-01-19T05:43:04.166Z,8
2023-01-19T05:45:33.854Z,8
2023-01-19T05:48:04.072Z,8
2023-01-19T05:50:34.223Z,8
2023-01-19T05:53:04.485Z,10
2023-01-19T05:55:34.676Z,12
2023-01-19T05:58:04.965Z,8
2023-01-19T06:00:35.308Z,12
2023-01-19T06:03:05.624Z,10
2023-01-19T06:05:36.040Z,8
2023-01-19T06:08:06.400Z,8
2023-01-19T06:10:36.727Z,8
2023-01-19T06:13:07.109Z,8
2023-01-19T06:15:37.546Z,8
2023-01-19T06:18:07.862Z,8
2023-01-19T06:20:38.115Z,8
2023-01-19T06:23:08.341Z,10
2023-01-19T06:25:38.499Z,8
2023-01-19T06:28:08.786Z,8
2023-01-19T06:30:39.304Z,8
2023-01-19T06:33:09.547Z,8
2023-01-19T06:35:39.893Z,10
2023-01-19T06:38:10.170Z,8
2023-01-19T06:40:40.605Z,12
2023-01-19T06:43:10.772Z,8
2023-01-19T06:45:41.284Z,10
2023-01-19T06:48:11.642Z,12
2023-01-19T06:50:41.867Z,7
2023-01-19T06:53:12.174Z,12
2023-01-19T06:55:42.713Z,13
2023-01-19T06:58:13.148Z,18
2023-01-19T07:00:43.420Z,12
2023-01-19T07:03:13.829Z,8
2023-01-19T07:05:44.323Z,14
2023-01-19T07:08:14.742Z,12
2023-01-19T07:11:21.731Z,12
2023-01-19T07:13:15.615Z,16
2023-01-19T07:15:45.848Z,14
2023-01-19T07:18:16.222Z,10
2023-01-19T07:20:46.703Z,11
2023-01-19T07:23:17.047Z,18
2023-01-19T07:25:47.644Z,12
2023-01-19T07:28:18.107Z,18
2023-01-19T07:30:48.563Z,18
2023-01-19T07:33:18.840Z,26
2023-01-19T07:35:49.251Z,24
2023-01-19T07:38:19.610Z,28
2023-01-19T07:40:49.926Z,28
2023-01-19T07:43:20.153Z,33
2023-01-19T07:45:50.244Z,26
2023-01-19T07:48:19.851Z,16
2023-01-19T07:50:49.796Z,18
2023-01-19T07:53:20.331Z,22
2023-01-19T07:55:50.768Z,27
2023-01-19T07:58:21.101Z,22
2023-01-19T08:00:51.493Z,16
2023-01-19T08:03:21.583Z,12
2023-01-19T08:05:51.990Z,14
2023-01-19T08:08:22.237Z,20
2023-01-19T08:10:52.541Z,16
2023-01-19T08:13:22.847Z,30
2023-01-19T08:15:53.213Z,42
2023-01-19T08:18:23.576Z,32
2023-01-19T08:20:53.861Z,30
2023-01-19T08:23:24.367Z,24
2023-01-19T08:25:55.482Z,8
2023-01-19T08:28:25.476Z,8
2023-01-19T08:30:55.865Z,12
2023-01-19T08:33:26.145Z,16
2023-01-19T08:35:57.149Z,10
2023-01-19T08:38:27.391Z,16
2023-01-19T08:40:57.610Z,16
2023-01-19T08:43:28.019Z,10
2023-01-19T08:45:58.497Z,10
2023-01-19T08:48:29.019Z,14
2023-01-19T08:51:00.096Z,12
2023-01-19T08:53:30.368Z,8
2023-01-19T08:56:00.695Z,10
2023-01-19T08:58:34.291Z,8
2023-01-19T09:01:05.225Z,31
2023-01-19T09:03:35.342Z,16
2023-01-19T09:06:05.708Z,12
2023-01-19T09:08:35.948Z,20
2023-01-19T09:11:06.411Z,12
2023-01-19T09:13:36.626Z,18
2023-01-19T09:16:07.116Z,14
2023-01-19T09:18:37.499Z,6
2023-01-19T09:21:08.793Z,12
2023-01-19T09:23:39.055Z,8
2023-01-19T09:26:10.236Z,10
2023-01-19T09:28:40.451Z,8
2023-01-19T09:31:11.656Z,8
2023-01-19T09:33:41.988Z,10
2023-01-19T09:36:12.975Z,10
2023-01-19T09:38:43.199Z,10
2023-01-19T09:41:13.744Z,12
2023-01-19T09:43:44.068Z,6
2023-01-19T09:46:14.475Z,8
2023-01-19T09:48:45.035Z,8
2023-01-19T09:51:16.167Z,8
2023-01-19T09:53:46.417Z,8
2023-01-19T09:56:17.597Z,10
2023-01-19T09:58:48.084Z,8
2023-01-19T10:01:19.110Z,8
2023-01-19T10:03:49.528Z,12
2023-01-19T10:06:20.610Z,8
2023-01-19T10:08:50.818Z,4
2023-01-19T10:11:21.901Z,8
2023-01-19T10:13:52.045Z,8
2023-01-19T10:16:22.402Z,8
2023-01-19T10:18:52.797Z,10
2023-01-19T10:21:23.710Z,12
2023-01-19T10:23:53.893Z,12
2023-01-19T10:26:25.009Z,8
2023-01-19T10:28:55.334Z,8
2023-01-19T10:31:25.929Z,10
2023-01-19T10:33:56.557Z,10
2023-01-19T10:36:26.875Z,4
2023-01-19T10:38:57.728Z,4
2023-01-19T10:41:27.988Z,10
2023-01-19T10:43:58.515Z,8
2023-01-19T10:46:29.491Z,8
2023-01-19T10:48:59.880Z,6
2023-01-19T10:51:30.271Z,11
2023-01-19T10:54:00.973Z,10
2023-01-19T10:56:31.364Z,10
2023-01-19T10:59:01.974Z,8
2023-01-19T11:01:32.574Z,6
2023-01-19T11:04:03.172Z,8
2023-01-19T11:06:33.502Z,10
2023-01-19T11:09:03.837Z,6
2023-01-19T11:11:34.259Z,6
2023-01-19T11:14:05.304Z,12
2023-01-19T11:16:35.633Z,8
2023-01-19T11:19:06.781Z,8
2023-01-19T11:21:37.197Z,8
2023-01-19T11:24:08.078Z,8
2023-01-19T11:26:38.367Z,6
2023-01-19T11:29:09.193Z,8
2023-01-19T11:31:39.541Z,8
2023-01-19T11:34:09.943Z,8
2023-01-19T11:36:40.332Z,10
2023-01-19T11:39:11.442Z,8
2023-01-19T11:41:41.637Z,4
2023-01-19T11:44:11.925Z,4
2023-01-19T11:46:42.353Z,4
2023-01-19T11:49:12.950Z,8
2023-01-19T11:51:43.279Z,10
2023-01-19T11:54:14.229Z,6
2023-01-19T11:56:44.546Z,4
2023-01-19T11:59:14.979Z,4
2023-01-19T12:01:45.318Z,4
2023-01-19T12:04:16.390Z,6
2023-01-19T12:06:46.644Z,4
2023-01-19T12:09:17.488Z,4
2023-01-19T12:11:47.645Z,4
2023-01-19T12:14:17.948Z,26
2023-01-19T12:16:48.928Z,30
2023-01-19T12:19:19.186Z,30
2023-01-19T12:21:49.844Z,33
2023-01-19T12:24:20.079Z,30
2023-01-19T12:26:51.045Z,45
2023-01-19T12:29:21.221Z,56
2023-01-19T12:31:52.224Z,50
2023-01-19T12:34:22.352Z,50
2023-01-19T12:36:53.370Z,52
2023-01-19T12:39:23.429Z,52
2023-01-19T12:41:53.949Z,57
2023-01-19T12:44:24.178Z,44
2023-01-19T12:46:54.570Z,35
2023-01-19T12:49:24.950Z,36
2023-01-19T12:51:55.225Z,44
2023-01-19T12:54:25.536Z,34
2023-01-19T12:56:56.479Z,36
2023-01-19T12:59:26.774Z,40
2023-01-19T13:01:56.755Z,27
2023-01-19T13:04:27.122Z,28
2023-01-19T13:06:57.368Z,28
2023-01-19T13:09:27.737Z,20
2023-01-19T13:12:00.910Z,24
2023-01-19T13:14:28.922Z,26
2023-01-19T13:16:59.402Z,23
2023-01-19T13:19:30.371Z,24
2023-01-19T13:22:00.550Z,24
2023-01-19T13:24:31.664Z,26
2023-01-19T13:27:01.891Z,26
2023-01-19T13:29:32.182Z,22
2023-01-19T13:32:02.653Z,26
2023-01-19T13:34:33.700Z,20
2023-01-19T13:37:03.934Z,16
2023-01-19T13:39:34.994Z,20
2023-01-19T13:42:05.282Z,16
2023-01-19T13:44:36.243Z,16
2023-01-19T13:47:06.517Z,14
2023-01-19T13:49:36.958Z,12
2023-01-19T13:52:07.346Z,12
2023-01-19T13:54:38.143Z,12
2023-01-19T13:57:08.560Z,12
2023-01-19T13:59:39.617Z,12
2023-01-19T14:02:09.878Z,10
2023-01-19T14:04:40.201Z,24
2023-01-19T14:07:10.381Z,20
2023-01-19T14:09:40.643Z,20
2023-01-19T14:12:10.914Z,32
2023-01-19T14:14:41.966Z,24
2023-01-19T14:17:12.069Z,28
2023-01-19T14:19:42.401Z,26
2023-01-19T14:22:12.581Z,30
2023-01-19T14:24:43.562Z,20
2023-01-19T14:27:14.285Z,22
2023-01-19T14:29:44.606Z,22
2023-01-19T14:32:15.619Z,28
2023-01-19T14:34:45.746Z,26
2023-01-19T14:37:16.002Z,24
2023-01-19T14:39:46.910Z,22
2023-01-19T14:42:17.548Z,20
2023-01-19T14:44:48.060Z,32
2023-01-19T14:47:18.146Z,29
2023-01-19T14:49:48.434Z,22
2023-01-19T14:52:18.630Z,28
2023-01-19T14:54:49.638Z,28
2023-01-19T14:57:19.885Z,42
2023-01-19T14:59:49.862Z,30
2023-01-19T15:02:20.815Z,58
2023-01-19T15:04:51.032Z,24
2023-01-19T15:07:21.268Z,20
2023-01-19T15:09:51.723Z,30
2023-01-19T15:12:22.617Z,52
2023-01-19T15:14:53.066Z,36
2023-01-19T15:17:23.860Z,46
2023-01-19T15:19:54.914Z,24
2023-01-19T15:22:25.285Z,26
2023-01-19T15:24:56.436Z,20
2023-01-19T15:27:26.799Z,20
2023-01-19T15:29:57.635Z,22
2023-01-19T15:32:27.872Z,18
2023-01-19T15:34:58.293Z,28
2023-01-19T15:37:28.615Z,31
2023-01-19T15:39:58.933Z,26
2023-01-19T15:42:29.823Z,24
2023-01-19T15:45:00.437Z,42
2023-01-19T15:47:30.689Z,22
2023-01-19T15:50:00.904Z,32
2023-01-19T15:52:34.841Z,24
2023-01-19T15:55:04.923Z,22
2023-01-19T15:57:35.736Z,24
2023-01-19T16:00:06.109Z,18
2023-01-19T16:02:36.504Z,20
2023-01-19T16:05:07.560Z,24
2023-01-19T16:07:37.457Z,26
2023-01-19T16:10:08.249Z,26
2023-01-19T16:12:37.626Z,30
2023-01-19T16:15:08.107Z,28
2023-01-19T16:17:38.697Z,44
2023-01-19T16:20:09.335Z,16
2023-01-19T16:22:39.888Z,16
2023-01-19T16:25:10.245Z,28
2023-01-19T16:27:41.119Z,22
2023-01-19T16:30:11.994Z,22
2023-01-19T16:32:41.983Z,20
2023-01-19T16:35:12.328Z,24
2023-01-19T16:37:44.348Z,18
2023-01-19T16:40:14.683Z,18
2023-01-19T16:42:45.649Z,22
2023-01-19T16:45:15.964Z,18
2023-01-19T16:47:46.220Z,20
2023-01-19T16:50:16.268Z,24
2023-01-19T16:52:46.668Z,26
2023-01-19T16:55:17.046Z,24
2023-01-19T16:57:47.455Z,22
2023-01-19T17:00:17.806Z,28
2023-01-19T17:02:48.819Z,28
2023-01-19T17:05:18.934Z,26
2023-01-19T17:07:49.886Z,20
2023-01-19T17:10:19.969Z,22
2023-01-19T17:12:50.077Z,24
2023-01-19T17:15:20.990Z,16
2023-01-19T17:17:51.146Z,20
2023-01-19T17:20:21.343Z,22
2023-01-19T17:22:51.830Z,20
2023-01-19T17:25:22.212Z,24
2023-01-19T17:27:52.631Z,28
2023-01-19T17:30:22.958Z,23
2023-01-19T17:32:53.289Z,30
2023-01-19T17:35:24.212Z,28
2023-01-19T17:37:55.151Z,28
2023-01-19T17:40:25.277Z,24
2023-01-19T17:42:55.582Z,30
2023-01-19T17:45:25.902Z,26
2023-01-19T17:47:56.169Z,22
2023-01-19T17:50:26.428Z,22
2023-01-19T17:52:56.935Z,26
2023-01-19T17:55:27.608Z,27
2023-01-19T17:58:00.293Z,26
2023-01-19T18:00:28.683Z,26
2023-01-19T18:02:59.795Z,25
2023-01-19T18:05:30.190Z,21
2023-01-19T18:08:00.419Z,28
2023-01-19T18:10:31.305Z,28
2023-01-19T18:13:01.747Z,28
2023-01-19T18:15:32.645Z,24
2023-01-19T18:18:02.707Z,22
2023-01-19T18:20:33.722Z,26
2023-01-19T18:23:03.953Z,31
2023-01-19T18:25:34.111Z,32
2023-01-19T18:28:04.616Z,30
2023-01-19T18:30:34.871Z,39
2023-01-19T18:33:05.096Z,28
2023-01-19T18:35:35.483Z,36
2023-01-19T18:38:05.610Z,33
2023-01-19T18:40:36.389Z,35
2023-01-19T18:43:06.652Z,30
2023-01-19T18:45:37.609Z,38
2023-01-19T18:48:07.908Z,28
2023-01-19T18:50:38.534Z,28
2023-01-19T18:53:08.426Z,32
2023-01-19T18:55:38.771Z,30
2023-01-19T18:58:09.926Z,36
2023-01-19T19:00:40.269Z,40
2023-01-19T19:03:11.222Z,38
2023-01-19T19:05:41.438Z,36
2023-01-19T19:08:11.716Z,46
2023-01-19T19:10:42.066Z,38
2023-01-19T19:13:12.305Z,45
2023-01-19T19:15:42.655Z,44
2023-01-19T19:18:13.536Z,45
2023-01-19T19:20:43.926Z,46
2023-01-19T19:23:14.779Z,53
2023-01-19T19:25:44.849Z,46
2023-01-19T19:28:15.176Z,59
2023-01-19T19:30:45.449Z,58
2023-01-19T19:33:15.732Z,56
2023-01-19T19:35:46.051Z,54
2023-01-19T19:38:16.109Z,52
2023-01-19T19:40:46.249Z,54
2023-01-19T19:43:17.187Z,52
2023-01-19T19:45:47.394Z,53
2023-01-19T19:48:17.751Z,44
2023-01-19T19:50:47.923Z,39
2023-01-19T19:53:18.960Z,54
2023-01-19T19:55:48.647Z,48
2023-01-19T19:58:19.416Z,48
2023-01-19T20:00:51.213Z,42
2023-01-19T20:03:21.172Z,34
2023-01-19T20:05:51.166Z,38
2023-01-19T20:08:22.161Z,35
2023-01-19T20:10:52.431Z,36
2023-01-19T20:13:22.782Z,31
2023-01-19T20:15:53.034Z,44
2023-01-19T20:18:23.149Z,51
2023-01-19T20:20:53.562Z,44
2023-01-19T20:23:23.866Z,34
2023-01-19T20:25:54.129Z,32
2023-01-19T20:28:24.461Z,40
2023-01-19T20:30:54.471Z,39
2023-01-19T20:33:25.379Z,36
2023-01-19T20:35:56.298Z,40
2023-01-19T20:38:25.889Z,38
2023-01-19T20:40:56.165Z,43
2023-01-19T20:43:26.462Z,36
2023-01-19T20:45:56.744Z,36
2023-01-19T20:48:27.032Z,47
2023-01-19T20:50:57.281Z,42
2023-01-19T20:53:27.667Z,44
2023-01-19T20:55:57.819Z,42
2023-01-19T20:58:28.006Z,56
2023-01-19T21:00:58.523Z,48
2023-01-19T21:03:28.820Z,49
2023-01-19T21:05:59.661Z,36
2023-01-19T21:08:29.902Z,49
2023-01-19T21:11:00.695Z,52
2023-01-19T21:13:31.048Z,37
2023-01-19T21:16:01.411Z,51
2023-01-19T21:18:31.459Z,59
2023-01-19T21:21:02.337Z,56
2023-01-19T21:23:32.609Z,48
2023-01-19T21:26:02.838Z,52
2023-01-19T21:28:32.880Z,62
2023-01-19T21:31:03.361Z,60
2023-01-19T21:33:33.531Z,67
2023-01-19T21:36:03.640Z,50
2023-01-19T21:38:33.687Z,63
2023-01-19T21:41:03.958Z,55
2023-01-19T21:43:34.181Z,58
2023-01-19T21:46:05.293Z,62
2023-01-19T21:48:35.431Z,58
2023-01-19T21:51:06.370Z,64
2023-01-19T21:53:36.681Z,53
2023-01-19T21:56:07.319Z,56
2023-01-19T21:58:37.340Z,59
2023-01-19T22:01:07.528Z,63
2023-01-19T22:03:37.792Z,55
2023-01-19T22:06:08.828Z,57
2023-01-19T22:08:39.005Z,56
2023-01-19T22:11:09.913Z,60
2023-01-19T22:13:40.175Z,56
2023-01-19T22:16:11.043Z,61
2023-01-19T22:18:41.340Z,60
2023-01-19T22:21:11.577Z,57
2023-01-19T22:23:41.972Z,56
2023-01-19T22:26:12.714Z,56
2023-01-19T22:28:43.543Z,58
2023-01-19T22:31:13.700Z,57
2023-01-19T22:33:44.415Z,59
2023-01-19T22:36:14.664Z,60
2023-01-19T22:38:45.595Z,60
2023-01-19T22:41:15.962Z,61
2023-01-19T22:43:48.364Z,58
2023-01-19T22:46:18.533Z,62
2023-01-19T22:48:48.853Z,56
2023-01-19T22:51:19.210Z,66
2023-01-19T22:53:49.503Z,66
2023-01-19T22:56:20.095Z,64
2023-01-19T22:58:49.976Z,56
2023-01-19T23:01:20.491Z,63
2023-01-19T23:03:50.661Z,64
2023-01-19T23:06:21.006Z,66
2023-01-19T23:08:51.179Z,64
2023-01-19T23:11:21.857Z,55
2023-01-19T23:13:52.162Z,62
2023-01-19T23:16:23.084Z,63
2023-01-19T23:18:53.606Z,55
2023-01-19T23:21:24.517Z,46
2023-01-19T23:23:54.637Z,64
2023-01-19T23:26:25.615Z,58
2023-01-19T23:28:55.645Z,64
2023-01-19T23:31:26.546Z,60
2023-01-19T23:33:56.624Z,63
2023-01-19T23:36:27.193Z,58
2023-01-19T23:38:57.321Z,58
2023-01-19T23:41:27.664Z,54
2023-01-19T23:43:57.588Z,62
2023-01-19T23:46:27.791Z,54
2023-01-19T23:48:57.800Z,61
2023-01-19T23:51:28.226Z,59
2023-01-19T23:53:58.413Z,60
2023-01-19T23:56:28.457Z,86
2023-01-19T23:58:58.976Z,90
